sensor_id;sensor_type;location;lat;lon;timestamp;P1;durP1;ratioP1;P2;durP2;ratioP2
55913;SDS011;58179;48.776;9.124;2023-06-24T00:01:14;7.30;;;5.45;;
55913;SDS011;58179;48.776;9.124;2023-06-24T00:03:40;8.32;;;6.22;;
55913;SDS011;58179;48.776;9.124;2023-06-24T00:06:11;7.72;;;6.07;;
55913;SDS011;58179;48.776;9.124;2023-06-24T00:08:43;7.68;;;5.95;;
55913;SDS011;58179;48.776;9.124;2023-06-24T00:11:10;7.60;;;5.43;;
55913;SDS011;58179;48.776;9.124;2023-06-24T00:13:37;6.82;;;5.22;;
55913;SDS011;58179;48.776;9.124;2023-06-24T00:16:05;7.72;;;5.80;;
55913;SDS011;58179;48.776;9.124;2023-06-24T00:18:33;6.53;;;5.25;;
55913;SDS011;58179;48.776;9.124;2023-06-24T00:21:00;6.65;;;5.20;;
55913;SDS011;58179;48.776;9.124;2023-06-24T00:23:27;7.93;;;5.27;;
55913;SDS011;58179;48.776;9.124;2023-06-24T00:25:56;6.95;;;5.63;;
55913;SDS011;58179;48.776;9.124;2023-06-24T00:28:22;8.45;;;5.93;;
55913;SDS011;58179;48.776;9.124;2023-06-24T00:30:49;7.60;;;5.82;;
55913;SDS011;58179;48.776;9.124;2023-06-24T00:33:16;8.03;;;6.10;;
55913;SDS011;58179;48.776;9.124;2023-06-24T00:35:44;7.57;;;6.20;;
55913;SDS011;58179;48.776;9.124;2023-06-24T00:38:11;7.43;;;5.47;;
55913;SDS011;58179;48.776;9.124;2023-06-24T00:40:37;5.57;;;4.93;;
55913;SDS011;58179;48.776;9.124;2023-06-24T00:43:04;9.10;;;6.00;;
55913;SDS011;58179;48.776;9.124;2023-06-24T00:45:31;7.45;;;5.95;;
55913;SDS011;58179;48.776;9.124;2023-06-24T00:47:57;7.10;;;5.90;;
55913;SDS011;58179;48.776;9.124;2023-06-24T00:50:25;9.95;;;6.10;;
55913;SDS011;58179;48.776;9.124;2023-06-24T00:52:53;8.30;;;6.00;;
55913;SDS011;58179;48.776;9.124;2023-06-24T00:55:21;8.30;;;6.55;;
55913;SDS011;58179;48.776;9.124;2023-06-24T00:57:48;7.82;;;5.93;;
55913;SDS011;58179;48.776;9.124;2023-06-24T01:00:17;9.00;;;5.73;;
55913;SDS011;58179;48.776;9.124;2023-06-24T01:02:44;7.65;;;6.20;;
55913;SDS011;58179;48.776;9.124;2023-06-24T01:05:13;7.97;;;5.72;;
55913;SDS011;58179;48.776;9.124;2023-06-24T01:07:42;7.95;;;6.32;;
55913;SDS011;58179;48.776;9.124;2023-06-24T01:10:09;8.15;;;6.20;;
55913;SDS011;58179;48.776;9.124;2023-06-24T01:12:37;8.63;;;6.10;;
55913;SDS011;58179;48.776;9.124;2023-06-24T01:15:05;7.60;;;5.75;;
55913;SDS011;58179;48.776;9.124;2023-06-24T01:17:33;8.40;;;6.30;;
55913;SDS011;58179;48.776;9.124;2023-06-24T01:20:06;7.70;;;6.40;;
55913;SDS011;58179;48.776;9.124;2023-06-24T01:25:33;7.88;;;6.30;;
55913;SDS011;58179;48.776;9.124;2023-06-24T01:28:20;8.77;;;6.30;;
55913;SDS011;58179;48.776;9.124;2023-06-24T01:31:04;7.32;;;6.13;;
55913;SDS011;58179;48.776;9.124;2023-06-24T01:33:56;7.22;;;6.03;;
55913;SDS011;58179;48.776;9.124;2023-06-24T01:36:29;8.50;;;6.53;;
55913;SDS011;58179;48.776;9.124;2023-06-24T01:38:58;8.18;;;6.80;;
55913;SDS011;58179;48.776;9.124;2023-06-24T01:41:30;8.73;;;6.85;;
55913;SDS011;58179;48.776;9.124;2023-06-24T01:43:59;8.63;;;6.63;;
55913;SDS011;58179;48.776;9.124;2023-06-24T01:46:29;8.13;;;6.32;;
55913;SDS011;58179;48.776;9.124;2023-06-24T01:48:58;9.80;;;6.97;;
55913;SDS011;58179;48.776;9.124;2023-06-24T01:51:28;8.55;;;6.97;;
55913;SDS011;58179;48.776;9.124;2023-06-24T01:53:58;10.13;;;7.07;;
55913;SDS011;58179;48.776;9.124;2023-06-24T01:56:28;8.55;;;6.78;;
55913;SDS011;58179;48.776;9.124;2023-06-24T01:58:55;10.50;;;8.13;;
55913;SDS011;58179;48.776;9.124;2023-06-24T02:01:25;10.25;;;7.57;;
55913;SDS011;58179;48.776;9.124;2023-06-24T02:03:54;8.38;;;6.97;;
55913;SDS011;58179;48.776;9.124;2023-06-24T02:06:22;10.73;;;8.18;;
55913;SDS011;58179;48.776;9.124;2023-06-24T02:08:51;10.32;;;7.78;;
55913;SDS011;58179;48.776;9.124;2023-06-24T02:11:21;12.35;;;7.68;;
55913;SDS011;58179;48.776;9.124;2023-06-24T02:13:49;10.65;;;8.00;;
55913;SDS011;58179;48.776;9.124;2023-06-24T02:16:18;12.10;;;8.57;;
55913;SDS011;58179;48.776;9.124;2023-06-24T02:18:48;11.98;;;8.40;;
55913;SDS011;58179;48.776;9.124;2023-06-24T02:21:15;9.48;;;7.68;;
55913;SDS011;58179;48.776;9.124;2023-06-24T02:23:44;10.63;;;7.97;;
55913;SDS011;58179;48.776;9.124;2023-06-24T02:26:11;10.35;;;8.10;;
55913;SDS011;58179;48.776;9.124;2023-06-24T02:28:37;10.93;;;8.82;;
55913;SDS011;58179;48.776;9.124;2023-06-24T02:31:05;10.55;;;8.30;;
55913;SDS011;58179;48.776;9.124;2023-06-24T02:33:34;10.07;;;7.45;;
55913;SDS011;58179;48.776;9.124;2023-06-24T02:36:01;9.90;;;7.75;;
55913;SDS011;58179;48.776;9.124;2023-06-24T02:38:28;9.13;;;7.13;;
55913;SDS011;58179;48.776;9.124;2023-06-24T02:40:54;11.15;;;7.70;;
55913;SDS011;58179;48.776;9.124;2023-06-24T02:43:21;9.27;;;7.68;;
55913;SDS011;58179;48.776;9.124;2023-06-24T02:45:47;11.98;;;8.38;;
55913;SDS011;58179;48.776;9.124;2023-06-24T02:48:15;12.17;;;8.20;;
55913;SDS011;58179;48.776;9.124;2023-06-24T02:50:43;10.02;;;7.70;;
55913;SDS011;58179;48.776;9.124;2023-06-24T02:53:12;10.20;;;8.05;;
55913;SDS011;58179;48.776;9.124;2023-06-24T02:55:39;10.40;;;7.97;;
55913;SDS011;58179;48.776;9.124;2023-06-24T02:58:07;11.67;;;8.27;;
55913;SDS011;58179;48.776;9.124;2023-06-24T03:00:35;11.68;;;7.50;;
55913;SDS011;58179;48.776;9.124;2023-06-24T03:03:03;10.55;;;7.82;;
55913;SDS011;58179;48.776;9.124;2023-06-24T03:05:32;9.55;;;7.13;;
55913;SDS011;58179;48.776;9.124;2023-06-24T03:07:59;9.95;;;8.02;;
55913;SDS011;58179;48.776;9.124;2023-06-24T03:10:30;11.45;;;7.93;;
55913;SDS011;58179;48.776;9.124;2023-06-24T03:12:56;9.00;;;7.43;;
55913;SDS011;58179;48.776;9.124;2023-06-24T03:15:22;13.48;;;7.90;;
55913;SDS011;58179;48.776;9.124;2023-06-24T03:17:49;12.30;;;8.60;;
55913;SDS011;58179;48.776;9.124;2023-06-24T03:20:16;12.00;;;8.35;;
55913;SDS011;58179;48.776;9.124;2023-06-24T03:22:43;10.95;;;8.32;;
55913;SDS011;58179;48.776;9.124;2023-06-24T03:25:09;9.97;;;7.60;;
55913;SDS011;58179;48.776;9.124;2023-06-24T03:27:36;10.65;;;8.00;;
55913;SDS011;58179;48.776;9.124;2023-06-24T03:30:03;10.15;;;7.63;;
55913;SDS011;58179;48.776;9.124;2023-06-24T03:32:31;10.70;;;7.40;;
55913;SDS011;58179;48.776;9.124;2023-06-24T03:35:01;10.40;;;7.78;;
55913;SDS011;58179;48.776;9.124;2023-06-24T03:37:27;11.38;;;8.43;;
55913;SDS011;58179;48.776;9.124;2023-06-24T03:39:54;8.43;;;7.13;;
55913;SDS011;58179;48.776;9.124;2023-06-24T03:42:21;9.55;;;7.82;;
55913;SDS011;58179;48.776;9.124;2023-06-24T03:44:48;10.95;;;7.70;;
55913;SDS011;58179;48.776;9.124;2023-06-24T03:47:14;9.30;;;7.50;;
55913;SDS011;58179;48.776;9.124;2023-06-24T03:49:41;10.40;;;7.83;;
55913;SDS011;58179;48.776;9.124;2023-06-24T03:52:07;10.32;;;8.02;;
55913;SDS011;58179;48.776;9.124;2023-06-24T03:54:34;11.25;;;8.02;;
55913;SDS011;58179;48.776;9.124;2023-06-24T03:57:00;10.68;;;8.05;;
55913;SDS011;58179;48.776;9.124;2023-06-24T03:59:26;10.55;;;7.85;;
55913;SDS011;58179;48.776;9.124;2023-06-24T04:01:54;10.30;;;8.23;;
55913;SDS011;58179;48.776;9.124;2023-06-24T04:04:20;11.15;;;8.20;;
55913;SDS011;58179;48.776;9.124;2023-06-24T04:06:48;9.38;;;7.68;;
55913;SDS011;58179;48.776;9.124;2023-06-24T04:09:14;11.05;;;7.95;;
55913;SDS011;58179;48.776;9.124;2023-06-24T04:11:40;12.38;;;8.85;;
55913;SDS011;58179;48.776;9.124;2023-06-24T04:14:07;11.07;;;8.52;;
55913;SDS011;58179;48.776;9.124;2023-06-24T04:16:34;11.88;;;8.23;;
55913;SDS011;58179;48.776;9.124;2023-06-24T04:19:01;11.40;;;7.80;;
55913;SDS011;58179;48.776;9.124;2023-06-24T04:21:28;10.10;;;7.80;;
55913;SDS011;58179;48.776;9.124;2023-06-24T04:23:54;9.27;;;7.25;;
55913;SDS011;58179;48.776;9.124;2023-06-24T04:26:20;10.02;;;7.57;;
55913;SDS011;58179;48.776;9.124;2023-06-24T04:28:47;8.97;;;6.87;;
55913;SDS011;58179;48.776;9.124;2023-06-24T04:31:13;9.77;;;7.50;;
55913;SDS011;58179;48.776;9.124;2023-06-24T04:33:39;13.35;;;9.80;;
55913;SDS011;58179;48.776;9.124;2023-06-24T04:36:07;12.15;;;9.52;;
55913;SDS011;58179;48.776;9.124;2023-06-24T04:38:33;9.73;;;8.20;;
55913;SDS011;58179;48.776;9.124;2023-06-24T04:40:59;10.25;;;8.10;;
55913;SDS011;58179;48.776;9.124;2023-06-24T04:43:25;11.63;;;8.30;;
55913;SDS011;58179;48.776;9.124;2023-06-24T04:45:54;11.00;;;8.00;;
55913;SDS011;58179;48.776;9.124;2023-06-24T04:48:23;11.80;;;8.80;;
55913;SDS011;58179;48.776;9.124;2023-06-24T04:50:49;10.98;;;8.65;;
55913;SDS011;58179;48.776;9.124;2023-06-24T04:53:17;12.55;;;8.50;;
55913;SDS011;58179;48.776;9.124;2023-06-24T04:55:43;10.77;;;7.80;;
55913;SDS011;58179;48.776;9.124;2023-06-24T04:58:09;8.68;;;7.07;;
55913;SDS011;58179;48.776;9.124;2023-06-24T05:00:36;11.88;;;8.10;;
55913;SDS011;58179;48.776;9.124;2023-06-24T05:03:02;11.27;;;7.85;;
55913;SDS011;58179;48.776;9.124;2023-06-24T05:05:28;10.10;;;7.32;;
55913;SDS011;58179;48.776;9.124;2023-06-24T05:07:54;9.32;;;7.00;;
55913;SDS011;58179;48.776;9.124;2023-06-24T05:10:22;14.30;;;10.43;;
55913;SDS011;58179;48.776;9.124;2023-06-24T05:12:48;13.57;;;9.70;;
55913;SDS011;58179;48.776;9.124;2023-06-24T05:15:14;10.98;;;8.73;;
55913;SDS011;58179;48.776;9.124;2023-06-24T05:17:41;14.65;;;9.02;;
55913;SDS011;58179;48.776;9.124;2023-06-24T05:20:08;10.63;;;8.00;;
55913;SDS011;58179;48.776;9.124;2023-06-24T05:22:35;10.67;;;7.00;;
55913;SDS011;58179;48.776;9.124;2023-06-24T05:25:01;10.30;;;7.20;;
55913;SDS011;58179;48.776;9.124;2023-06-24T05:27:29;9.90;;;7.90;;
55913;SDS011;58179;48.776;9.124;2023-06-24T05:29:56;9.23;;;7.25;;
55913;SDS011;58179;48.776;9.124;2023-06-24T05:32:22;11.93;;;6.85;;
55913;SDS011;58179;48.776;9.124;2023-06-24T05:34:48;13.48;;;7.60;;
55913;SDS011;58179;48.776;9.124;2023-06-24T05:37:14;10.15;;;7.38;;
55913;SDS011;58179;48.776;9.124;2023-06-24T05:39:40;10.50;;;7.30;;
55913;SDS011;58179;48.776;9.124;2023-06-24T05:42:07;11.77;;;6.85;;
55913;SDS011;58179;48.776;9.124;2023-06-24T05:44:34;9.73;;;7.32;;
55913;SDS011;58179;48.776;9.124;2023-06-24T05:47:01;8.88;;;6.45;;
55913;SDS011;58179;48.776;9.124;2023-06-24T05:49:27;8.60;;;6.28;;
55913;SDS011;58179;48.776;9.124;2023-06-24T05:51:53;7.73;;;6.00;;
55913;SDS011;58179;48.776;9.124;2023-06-24T05:54:21;7.97;;;6.53;;
55913;SDS011;58179;48.776;9.124;2023-06-24T05:56:47;10.25;;;6.38;;
55913;SDS011;58179;48.776;9.124;2023-06-24T05:59:13;8.68;;;6.07;;
55913;SDS011;58179;48.776;9.124;2023-06-24T06:01:41;7.45;;;5.57;;
55913;SDS011;58179;48.776;9.124;2023-06-24T06:04:07;8.05;;;5.63;;
55913;SDS011;58179;48.776;9.124;2023-06-24T06:06:33;9.30;;;6.05;;
55913;SDS011;58179;48.776;9.124;2023-06-24T06:08:59;8.25;;;5.88;;
55913;SDS011;58179;48.776;9.124;2023-06-24T06:11:26;8.27;;;5.70;;
55913;SDS011;58179;48.776;9.124;2023-06-24T06:13:52;10.98;;;6.20;;
55913;SDS011;58179;48.776;9.124;2023-06-24T06:16:18;11.43;;;6.07;;
55913;SDS011;58179;48.776;9.124;2023-06-24T06:18:46;7.40;;;5.80;;
55913;SDS011;58179;48.776;9.124;2023-06-24T06:21:12;7.63;;;5.20;;
55913;SDS011;58179;48.776;9.124;2023-06-24T06:23:38;8.20;;;6.03;;
55913;SDS011;58179;48.776;9.124;2023-06-24T06:26:04;9.00;;;5.45;;
55913;SDS011;58179;48.776;9.124;2023-06-24T06:28:31;8.35;;;5.72;;
55913;SDS011;58179;48.776;9.124;2023-06-24T06:30:57;5.75;;;4.78;;
55913;SDS011;58179;48.776;9.124;2023-06-24T06:33:23;5.57;;;4.60;;
55913;SDS011;58179;48.776;9.124;2023-06-24T06:35:51;6.80;;;4.90;;
55913;SDS011;58179;48.776;9.124;2023-06-24T06:38:17;6.53;;;5.03;;
55913;SDS011;58179;48.776;9.124;2023-06-24T06:40:46;5.47;;;4.32;;
55913;SDS011;58179;48.776;9.124;2023-06-24T06:43:12;8.07;;;5.30;;
55913;SDS011;58179;48.776;9.124;2023-06-24T06:45:38;7.13;;;5.20;;
55913;SDS011;58179;48.776;9.124;2023-06-24T06:48:05;7.80;;;5.20;;
55913;SDS011;58179;48.776;9.124;2023-06-24T06:50:32;6.47;;;4.93;;
55913;SDS011;58179;48.776;9.124;2023-06-24T06:53:00;7.30;;;4.95;;
55913;SDS011;58179;48.776;9.124;2023-06-24T06:55:27;6.37;;;4.30;;
55913;SDS011;58179;48.776;9.124;2023-06-24T06:57:53;6.90;;;4.15;;
55913;SDS011;58179;48.776;9.124;2023-06-24T07:00:20;5.43;;;4.10;;
55913;SDS011;58179;48.776;9.124;2023-06-24T07:02:46;5.60;;;4.50;;
55913;SDS011;58179;48.776;9.124;2023-06-24T07:05:12;4.55;;;3.70;;
55913;SDS011;58179;48.776;9.124;2023-06-24T07:07:39;4.97;;;3.97;;
55913;SDS011;58179;48.776;9.124;2023-06-24T07:10:07;7.13;;;4.68;;
55913;SDS011;58179;48.776;9.124;2023-06-24T07:12:34;6.32;;;4.30;;
55913;SDS011;58179;48.776;9.124;2023-06-24T07:15:01;7.93;;;4.05;;
55913;SDS011;58179;48.776;9.124;2023-06-24T07:17:27;5.35;;;4.10;;
55913;SDS011;58179;48.776;9.124;2023-06-24T07:19:54;4.35;;;3.78;;
55913;SDS011;58179;48.776;9.124;2023-06-24T07:22:20;5.82;;;4.05;;
55913;SDS011;58179;48.776;9.124;2023-06-24T07:24:46;6.43;;;4.20;;
55913;SDS011;58179;48.776;9.124;2023-06-24T07:27:14;5.95;;;4.13;;
55913;SDS011;58179;48.776;9.124;2023-06-24T07:29:41;8.25;;;4.32;;
55913;SDS011;58179;48.776;9.124;2023-06-24T07:32:07;5.72;;;4.15;;
55913;SDS011;58179;48.776;9.124;2023-06-24T07:34:34;6.40;;;4.22;;
55913;SDS011;58179;48.776;9.124;2023-06-24T07:37:00;10.27;;;4.22;;
55913;SDS011;58179;48.776;9.124;2023-06-24T07:39:26;4.65;;;3.40;;
55913;SDS011;58179;48.776;9.124;2023-06-24T07:41:52;4.32;;;3.50;;
55913;SDS011;58179;48.776;9.124;2023-06-24T07:44:20;6.78;;;4.13;;
55913;SDS011;58179;48.776;9.124;2023-06-24T07:46:46;6.07;;;3.88;;
55913;SDS011;58179;48.776;9.124;2023-06-24T07:49:13;6.03;;;4.22;;
55913;SDS011;58179;48.776;9.124;2023-06-24T07:51:39;6.32;;;4.57;;
55913;SDS011;58179;48.776;9.124;2023-06-24T07:54:05;6.55;;;4.55;;
55913;SDS011;58179;48.776;9.124;2023-06-24T07:56:32;5.65;;;3.67;;
55913;SDS011;58179;48.776;9.124;2023-06-24T07:58:58;5.57;;;3.90;;
55913;SDS011;58179;48.776;9.124;2023-06-24T08:01:25;6.57;;;4.55;;
55913;SDS011;58179;48.776;9.124;2023-06-24T08:03:52;7.60;;;4.17;;
55913;SDS011;58179;48.776;9.124;2023-06-24T08:06:19;6.20;;;4.18;;
55913;SDS011;58179;48.776;9.124;2023-06-24T08:08:45;5.93;;;4.07;;
55913;SDS011;58179;48.776;9.124;2023-06-24T08:11:11;7.63;;;4.60;;
55913;SDS011;58179;48.776;9.124;2023-06-24T08:13:38;6.67;;;4.27;;
55913;SDS011;58179;48.776;9.124;2023-06-24T08:16:04;6.57;;;4.18;;
55913;SDS011;58179;48.776;9.124;2023-06-24T08:18:32;6.15;;;3.92;;
55913;SDS011;58179;48.776;9.124;2023-06-24T08:20:58;7.22;;;4.80;;
55913;SDS011;58179;48.776;9.124;2023-06-24T08:23:25;4.78;;;3.78;;
55913;SDS011;58179;48.776;9.124;2023-06-24T08:25:51;4.27;;;3.40;;
55913;SDS011;58179;48.776;9.124;2023-06-24T08:28:17;5.88;;;4.20;;
55913;SDS011;58179;48.776;9.124;2023-06-24T08:30:43;6.35;;;4.10;;
55913;SDS011;58179;48.776;9.124;2023-06-24T08:33:09;5.68;;;4.05;;
55913;SDS011;58179;48.776;9.124;2023-06-24T08:35:37;4.78;;;3.88;;
55913;SDS011;58179;48.776;9.124;2023-06-24T08:38:03;6.43;;;4.03;;
55913;SDS011;58179;48.776;9.124;2023-06-24T08:40:29;7.82;;;4.20;;
55913;SDS011;58179;48.776;9.124;2023-06-24T08:42:56;5.32;;;3.78;;
55913;SDS011;58179;48.776;9.124;2023-06-24T08:45:23;5.07;;;3.67;;
55913;SDS011;58179;48.776;9.124;2023-06-24T08:47:52;6.72;;;4.32;;
55913;SDS011;58179;48.776;9.124;2023-06-24T08:50:20;5.00;;;3.75;;
55913;SDS011;58179;48.776;9.124;2023-06-24T08:52:53;6.40;;;4.03;;
55913;SDS011;58179;48.776;9.124;2023-06-24T08:55:22;4.57;;;3.50;;
55913;SDS011;58179;48.776;9.124;2023-06-24T08:57:49;5.60;;;3.58;;
55913;SDS011;58179;48.776;9.124;2023-06-24T09:00:16;4.47;;;3.42;;
55913;SDS011;58179;48.776;9.124;2023-06-24T09:02:44;4.75;;;3.13;;
55913;SDS011;58179;48.776;9.124;2023-06-24T09:05:11;5.15;;;3.50;;
55913;SDS011;58179;48.776;9.124;2023-06-24T09:07:37;6.40;;;4.05;;
55913;SDS011;58179;48.776;9.124;2023-06-24T09:10:05;7.22;;;4.00;;
55913;SDS011;58179;48.776;9.124;2023-06-24T09:12:35;4.38;;;3.30;;
55913;SDS011;58179;48.776;9.124;2023-06-24T09:15:01;5.50;;;3.00;;
55913;SDS011;58179;48.776;9.124;2023-06-24T09:17:29;4.68;;;3.30;;
55913;SDS011;58179;48.776;9.124;2023-06-24T09:20:02;5.35;;;3.35;;
55913;SDS011;58179;48.776;9.124;2023-06-24T09:22:30;5.43;;;3.75;;
55913;SDS011;58179;48.776;9.124;2023-06-24T09:24:57;6.60;;;3.95;;
55913;SDS011;58179;48.776;9.124;2023-06-24T09:27:30;6.15;;;4.10;;
55913;SDS011;58179;48.776;9.124;2023-06-24T09:29:57;5.30;;;4.25;;
55913;SDS011;58179;48.776;9.124;2023-06-24T09:32:26;4.68;;;3.50;;
55913;SDS011;58179;48.776;9.124;2023-06-24T09:34:54;4.88;;;3.60;;
55913;SDS011;58179;48.776;9.124;2023-06-24T09:37:20;4.63;;;3.60;;
55913;SDS011;58179;48.776;9.124;2023-06-24T09:39:52;3.88;;;3.05;;
55913;SDS011;58179;48.776;9.124;2023-06-24T09:42:20;3.38;;;2.72;;
55913;SDS011;58179;48.776;9.124;2023-06-24T09:44:53;3.22;;;2.75;;
55913;SDS011;58179;48.776;9.124;2023-06-24T09:47:20;3.38;;;2.75;;
55913;SDS011;58179;48.776;9.124;2023-06-24T09:49:50;4.82;;;3.05;;
55913;SDS011;58179;48.776;9.124;2023-06-24T09:52:16;3.30;;;3.00;;
55913;SDS011;58179;48.776;9.124;2023-06-24T09:54:46;3.50;;;2.95;;
55913;SDS011;58179;48.776;9.124;2023-06-24T09:57:15;3.15;;;2.53;;
55913;SDS011;58179;48.776;9.124;2023-06-24T09:59:46;3.38;;;2.70;;
55913;SDS011;58179;48.776;9.124;2023-06-24T10:02:15;3.60;;;3.00;;
55913;SDS011;58179;48.776;9.124;2023-06-24T10:04:43;4.22;;;3.22;;
55913;SDS011;58179;48.776;9.124;2023-06-24T10:07:10;3.58;;;3.20;;
55913;SDS011;58179;48.776;9.124;2023-06-24T10:09:38;5.75;;;3.70;;
55913;SDS011;58179;48.776;9.124;2023-06-24T10:12:04;4.30;;;3.17;;
55913;SDS011;58179;48.776;9.124;2023-06-24T10:14:31;4.05;;;3.47;;
55913;SDS011;58179;48.776;9.124;2023-06-24T10:17:01;5.03;;;3.88;;
55913;SDS011;58179;48.776;9.124;2023-06-24T10:19:29;6.50;;;3.50;;
55913;SDS011;58179;48.776;9.124;2023-06-24T10:22:02;3.77;;;3.17;;
55913;SDS011;58179;48.776;9.124;2023-06-24T10:24:32;3.57;;;2.80;;
55913;SDS011;58179;48.776;9.124;2023-06-24T10:27:03;4.38;;;3.00;;
55913;SDS011;58179;48.776;9.124;2023-06-24T10:29:30;3.17;;;2.72;;
55913;SDS011;58179;48.776;9.124;2023-06-24T10:32:00;4.10;;;3.17;;
55913;SDS011;58179;48.776;9.124;2023-06-24T10:34:33;3.47;;;2.83;;
55913;SDS011;58179;48.776;9.124;2023-06-24T10:37:04;5.10;;;3.05;;
55913;SDS011;58179;48.776;9.124;2023-06-24T10:42:29;2.80;;;2.50;;
55913;SDS011;58179;48.776;9.124;2023-06-24T10:45:12;3.33;;;2.55;;
55913;SDS011;58179;48.776;9.124;2023-06-24T10:47:44;3.28;;;2.42;;
55913;SDS011;58179;48.776;9.124;2023-06-24T10:50:13;3.38;;;2.80;;
55913;SDS011;58179;48.776;9.124;2023-06-24T10:52:40;3.05;;;2.70;;
55913;SDS011;58179;48.776;9.124;2023-06-24T10:55:08;4.68;;;3.72;;
55913;SDS011;58179;48.776;9.124;2023-06-24T10:57:38;5.07;;;3.33;;
55913;SDS011;58179;48.776;9.124;2023-06-24T11:00:04;5.30;;;3.80;;
55913;SDS011;58179;48.776;9.124;2023-06-24T11:02:33;5.60;;;3.92;;
55913;SDS011;58179;48.776;9.124;2023-06-24T11:04:59;6.87;;;3.83;;
55913;SDS011;58179;48.776;9.124;2023-06-24T11:07:28;3.63;;;3.17;;
55913;SDS011;58179;48.776;9.124;2023-06-24T11:09:58;4.28;;;3.10;;
55913;SDS011;58179;48.776;9.124;2023-06-24T11:12:26;4.00;;;2.67;;
55913;SDS011;58179;48.776;9.124;2023-06-24T11:14:55;2.92;;;2.50;;
55913;SDS011;58179;48.776;9.124;2023-06-24T11:17:22;4.15;;;2.80;;
55913;SDS011;58179;48.776;9.124;2023-06-24T11:19:49;4.45;;;3.00;;
55913;SDS011;58179;48.776;9.124;2023-06-24T11:22:17;7.00;;;3.00;;
55913;SDS011;58179;48.776;9.124;2023-06-24T11:24:45;3.25;;;2.67;;
55913;SDS011;58179;48.776;9.124;2023-06-24T11:27:11;3.67;;;2.60;;
55913;SDS011;58179;48.776;9.124;2023-06-24T11:29:37;2.90;;;2.47;;
55913;SDS011;58179;48.776;9.124;2023-06-24T11:32:06;2.85;;;2.47;;
55913;SDS011;58179;48.776;9.124;2023-06-24T11:34:33;4.47;;;3.13;;
55913;SDS011;58179;48.776;9.124;2023-06-24T11:37:08;3.88;;;2.90;;
55913;SDS011;58179;48.776;9.124;2023-06-24T11:39:37;2.97;;;2.55;;
55913;SDS011;58179;48.776;9.124;2023-06-24T11:42:05;3.88;;;3.08;;
55913;SDS011;58179;48.776;9.124;2023-06-24T11:44:34;3.00;;;2.47;;
55913;SDS011;58179;48.776;9.124;2023-06-24T11:47:04;3.47;;;2.70;;
55913;SDS011;58179;48.776;9.124;2023-06-24T11:49:32;4.10;;;2.93;;
55913;SDS011;58179;48.776;9.124;2023-06-24T11:52:12;3.47;;;2.90;;
55913;SDS011;58179;48.776;9.124;2023-06-24T11:54:40;3.92;;;3.00;;
55913;SDS011;58179;48.776;9.124;2023-06-24T11:57:09;3.23;;;2.43;;
55913;SDS011;58179;48.776;9.124;2023-06-24T11:59:38;3.42;;;2.60;;
55913;SDS011;58179;48.776;9.124;2023-06-24T12:02:04;5.40;;;2.50;;
55913;SDS011;58179;48.776;9.124;2023-06-24T12:04:30;2.83;;;2.30;;
55913;SDS011;58179;48.776;9.124;2023-06-24T12:06:57;3.33;;;2.50;;
55913;SDS011;58179;48.776;9.124;2023-06-24T12:09:24;2.88;;;2.35;;
55913;SDS011;58179;48.776;9.124;2023-06-24T12:11:50;3.42;;;2.75;;
55913;SDS011;58179;48.776;9.124;2023-06-24T12:14:19;4.22;;;2.80;;
55913;SDS011;58179;48.776;9.124;2023-06-24T12:16:45;3.53;;;2.77;;
55913;SDS011;58179;48.776;9.124;2023-06-24T12:19:11;3.97;;;2.90;;
55913;SDS011;58179;48.776;9.124;2023-06-24T12:21:37;4.18;;;3.10;;
55913;SDS011;58179;48.776;9.124;2023-06-24T12:24:04;6.88;;;3.67;;
55913;SDS011;58179;48.776;9.124;2023-06-24T12:26:30;3.43;;;2.80;;
55913;SDS011;58179;48.776;9.124;2023-06-24T12:28:57;4.55;;;3.05;;
55913;SDS011;58179;48.776;9.124;2023-06-24T12:31:24;4.30;;;2.90;;
55913;SDS011;58179;48.776;9.124;2023-06-24T12:33:50;5.07;;;3.10;;
55913;SDS011;58179;48.776;9.124;2023-06-24T12:36:17;6.37;;;3.20;;
55913;SDS011;58179;48.776;9.124;2023-06-24T12:38:43;4.47;;;2.80;;
55913;SDS011;58179;48.776;9.124;2023-06-24T12:41:09;4.25;;;2.97;;
55913;SDS011;58179;48.776;9.124;2023-06-24T12:43:36;4.72;;;3.13;;
55913;SDS011;58179;48.776;9.124;2023-06-24T12:46:02;3.42;;;2.92;;
55913;SDS011;58179;48.776;9.124;2023-06-24T12:48:29;4.32;;;3.28;;
55913;SDS011;58179;48.776;9.124;2023-06-24T12:50:55;3.92;;;3.20;;
55913;SDS011;58179;48.776;9.124;2023-06-24T12:53:22;4.05;;;3.13;;
55913;SDS011;58179;48.776;9.124;2023-06-24T12:55:48;4.57;;;3.00;;
55913;SDS011;58179;48.776;9.124;2023-06-24T12:58:18;4.30;;;2.93;;
55913;SDS011;58179;48.776;9.124;2023-06-24T13:00:44;3.47;;;2.70;;
55913;SDS011;58179;48.776;9.124;2023-06-24T13:03:11;4.95;;;2.88;;
55913;SDS011;58179;48.776;9.124;2023-06-24T13:05:38;3.78;;;2.80;;
55913;SDS011;58179;48.776;9.124;2023-06-24T13:08:04;3.50;;;2.88;;
55913;SDS011;58179;48.776;9.124;2023-06-24T13:10:31;3.42;;;2.78;;
55913;SDS011;58179;48.776;9.124;2023-06-24T13:12:57;3.28;;;2.97;;
55913;SDS011;58179;48.776;9.124;2023-06-24T13:15:23;3.63;;;2.90;;
55913;SDS011;58179;48.776;9.124;2023-06-24T13:17:50;3.25;;;2.70;;
55913;SDS011;58179;48.776;9.124;2023-06-24T13:20:16;3.58;;;2.60;;
55913;SDS011;58179;48.776;9.124;2023-06-24T13:22:44;3.97;;;3.00;;
55913;SDS011;58179;48.776;9.124;2023-06-24T13:25:10;3.13;;;2.80;;
55913;SDS011;58179;48.776;9.124;2023-06-24T13:27:36;3.72;;;2.88;;
55913;SDS011;58179;48.776;9.124;2023-06-24T13:30:02;3.58;;;2.72;;
55913;SDS011;58179;48.776;9.124;2023-06-24T13:32:29;4.10;;;2.87;;
55913;SDS011;58179;48.776;9.124;2023-06-24T13:34:55;4.53;;;3.03;;
55913;SDS011;58179;48.776;9.124;2023-06-24T13:37:22;2.97;;;2.40;;
55913;SDS011;58179;48.776;9.124;2023-06-24T13:39:49;3.42;;;2.67;;
55913;SDS011;58179;48.776;9.124;2023-06-24T13:42:15;3.50;;;2.65;;
55913;SDS011;58179;48.776;9.124;2023-06-24T13:44:42;3.83;;;2.90;;
55913;SDS011;58179;48.776;9.124;2023-06-24T13:47:09;3.20;;;2.90;;
55913;SDS011;58179;48.776;9.124;2023-06-24T13:49:35;4.07;;;2.78;;
55913;SDS011;58179;48.776;9.124;2023-06-24T13:52:01;2.63;;;2.42;;
55913;SDS011;58179;48.776;9.124;2023-06-24T13:54:28;4.35;;;2.58;;
55913;SDS011;58179;48.776;9.124;2023-06-24T13:56:59;3.00;;;2.50;;
55913;SDS011;58179;48.776;9.124;2023-06-24T13:59:25;2.80;;;2.50;;
55913;SDS011;58179;48.776;9.124;2023-06-24T14:01:51;3.57;;;2.60;;
55913;SDS011;58179;48.776;9.124;2023-06-24T14:04:17;2.85;;;2.47;;
55913;SDS011;58179;48.776;9.124;2023-06-24T14:06:43;2.30;;;2.10;;
55913;SDS011;58179;48.776;9.124;2023-06-24T14:09:11;2.33;;;2.13;;
55913;SDS011;58179;48.776;9.124;2023-06-24T14:11:37;3.25;;;2.35;;
55913;SDS011;58179;48.776;9.124;2023-06-24T14:14:06;3.15;;;2.42;;
55913;SDS011;58179;48.776;9.124;2023-06-24T14:16:32;2.60;;;2.30;;
55913;SDS011;58179;48.776;9.124;2023-06-24T14:18:58;2.63;;;2.28;;
55913;SDS011;58179;48.776;9.124;2023-06-24T14:21:24;3.57;;;2.50;;
55913;SDS011;58179;48.776;9.124;2023-06-24T14:23:50;3.03;;;2.47;;
55913;SDS011;58179;48.776;9.124;2023-06-24T14:26:17;2.28;;;2.00;;
55913;SDS011;58179;48.776;9.124;2023-06-24T14:28:43;2.90;;;2.42;;
55913;SDS011;58179;48.776;9.124;2023-06-24T14:31:11;3.00;;;2.70;;
55913;SDS011;58179;48.776;9.124;2023-06-24T14:33:37;2.60;;;2.40;;
55913;SDS011;58179;48.776;9.124;2023-06-24T14:36:03;3.08;;;2.65;;
55913;SDS011;58179;48.776;9.124;2023-06-24T14:38:29;2.90;;;2.67;;
55913;SDS011;58179;48.776;9.124;2023-06-24T14:40:56;5.13;;;2.80;;
55913;SDS011;58179;48.776;9.124;2023-06-24T14:43:22;3.42;;;2.60;;
55913;SDS011;58179;48.776;9.124;2023-06-24T14:45:48;4.75;;;2.90;;
55913;SDS011;58179;48.776;9.124;2023-06-24T14:48:16;5.13;;;2.93;;
55913;SDS011;58179;48.776;9.124;2023-06-24T14:50:42;2.85;;;2.58;;
55913;SDS011;58179;48.776;9.124;2023-06-24T14:53:08;4.03;;;2.67;;